Time,TemperatureF,DewpointF,PressureIn,WindDirection,WindDirectionDegrees,WindSpeedMPH,WindSpeedGustMPH,Humidity,HourlyPrecipIn,Conditions,Clouds,dailyrainin,SolarRadiationWatts/m^2,SoftwareType,DateUTC
2013-07-18 00:02:00,70.0,70.0,-100.00,SW,217,0.0,0.0,99,0.00,,,0.25,0.000000,,2013-07-18 04:02:00,
2013-07-18 00:32:00,70.0,70.0,-100.00,SE,136,0.0,0.0,99,0.00,,,0.25,0.000000,,2013-07-18 04:32:00,
2013-07-18 00:43:00,70.0,70.0,-100.00,SE,136,0.0,0.0,99,0.00,,,0.25,0.000000,,2013-07-18 04:43:00,
2013-07-18 00:52:00,70.0,70.0,-100.00,SE,136,0.0,0.0,99,0.00,,,0.25,0.000000,,2013-07-18 04:52:00,
2013-07-18 01:02:00,70.0,70.0,-100.00,SE,136,0.0,0.0,99,0.00,,,0.25,0.000000,,2013-07-18 05:02:00,
2013-07-18 01:43:00,69.0,69.0,-100.00,West,274,0.0,0.0,99,0.00,,,0.25,0.000000,,2013-07-18 05:43:00,
2013-07-18 01:52:00,69.0,69.0,-100.00,West,274,0.0,0.0,99,0.00,,,0.25,0.000000,,2013-07-18 05:52:00,
2013-07-18 02:01:00,69.0,69.0,-100.00,West,274,0.0,0.0,99,0.00,,,0.25,0.000000,,2013-07-18 06:01:00,
2013-07-18 02:32:00,68.0,68.0,-100.00,SSW,194,0.0,0.0,99,0.00,,,0.25,0.000000,,2013-07-18 06:32:00,
2013-07-18 02:43:00,68.0,68.0,-100.00,SSW,194,0.0,0.0,99,0.00,,,0.25,0.000000,,2013-07-18 06:43:00,
2013-07-18 02:52:00,68.0,68.0,-100.00,SSW,194,0.0,0.0,99,0.00,,,0.25,0.000000,,2013-07-18 06:52:00,
2013-07-18 03:01:00,68.0,68.0,-100.00,SSW,194,0.0,0.0,99,0.00,,,0.25,0.000000,,2013-07-18 07:01:00,
2013-07-18 07:43:00,69.0,69.0,-100.00,SSE,158,1.0,3.0,99,-99.99,,,0.26,47.000000,,2013-07-18 11:43:00,
2013-07-18 07:52:00,69.0,69.0,-100.00,SSE,158,1.0,3.0,99,-99.99,,,0.26,47.000000,,2013-07-18 11:52:00,
2013-07-18 08:02:00,69.0,69.0,-100.00,SSE,158,1.0,3.0,99,-99.99,,,0.26,47.000000,,2013-07-18 12:02:00,
2013-07-18 08:33:00,72.0,71.0,-100.00,SSW,195,2.0,4.0,98,0.00,,,0.26,167.000000,,2013-07-18 12:33:00,
2013-07-18 08:42:00,72.0,71.0,-100.00,SSW,195,2.0,4.0,98,0.00,,,0.26,167.000000,,2013-07-18 12:42:00,
2013-07-18 08:52:00,72.0,71.0,-100.00,SSW,195,2.0,4.0,98,0.00,,,0.26,167.000000,,2013-07-18 12:52:00,
2013-07-18 09:01:00,72.0,71.0,-100.00,SSW,195,2.0,4.0,98,0.00,,,0.26,167.000000,,2013-07-18 13:01:00,
2013-07-18 09:33:00,78.0,74.0,-100.00,SSW,212,2.0,4.0,87,0.00,,,0.26,405.000000,,2013-07-18 13:33:00,
2013-07-18 09:43:00,78.0,74.0,-100.00,SSW,212,2.0,4.0,87,0.00,,,0.26,405.000000,,2013-07-18 13:43:00,
2013-07-18 09:53:00,78.0,74.0,-100.00,SSW,212,2.0,4.0,87,0.00,,,0.26,405.000000,,2013-07-18 13:53:00,
2013-07-18 10:02:00,78.0,74.0,-100.00,SSW,212,2.0,4.0,87,0.00,,,0.26,405.000000,,2013-07-18 14:02:00,
2013-07-18 10:43:00,83.0,75.0,-100.00,SW,219,1.0,2.0,76,0.00,,,0.26,609.000000,,2013-07-18 14:43:00,
2013-07-18 10:53:00,83.0,75.0,-100.00,SW,219,1.0,2.0,76,0.00,,,0.26,609.000000,,2013-07-18 14:53:00,
2013-07-18 11:01:00,83.0,75.0,-100.00,SW,219,1.0,2.0,76,0.00,,,0.26,609.000000,,2013-07-18 15:01:00,
2013-07-18 11:43:00,85.0,76.0,-100.00,SSW,212,2.0,3.0,74,0.00,,,0.26,638.000000,,2013-07-18 15:43:00,
2013-07-18 11:53:00,85.0,76.0,-100.00,SSW,212,2.0,3.0,74,0.00,,,0.26,638.000000,,2013-07-18 15:53:00,
2013-07-18 12:01:00,85.0,76.0,-100.00,SSW,212,2.0,3.0,74,0.00,,,0.26,638.000000,,2013-07-18 16:01:00,
2013-07-18 12:32:00,84.0,75.0,-100.00,SW,221,2.0,4.0,75,0.00,,,0.26,574.000000,,2013-07-18 16:32:00,
2013-07-18 12:42:00,84.0,75.0,-100.00,SW,221,2.0,4.0,75,0.00,,,0.26,574.000000,,2013-07-18 16:42:00,
2013-07-18 12:52:00,84.0,75.0,-100.00,SW,221,2.0,4.0,75,0.00,,,0.26,574.000000,,2013-07-18 16:52:00,
2013-07-18 13:02:00,84.0,75.0,-100.00,SW,221,2.0,4.0,75,0.00,,,0.26,574.000000,,2013-07-18 17:02:00,
2013-07-18 13:33:00,88.0,71.0,-100.00,SW,218,5.0,10.0,57,0.00,,,0.26,787.000000,,2013-07-18 17:33:00,
2013-07-18 13:43:00,88.0,71.0,-100.00,SW,218,5.0,10.0,57,0.00,,,0.26,787.000000,,2013-07-18 17:43:00,
2013-07-18 13:52:00,88.0,71.0,-100.00,SW,218,5.0,10.0,57,0.00,,,0.26,787.000000,,2013-07-18 17:52:00,
2013-07-18 14:01:00,88.0,71.0,-100.00,SW,218,5.0,10.0,57,0.00,,,0.26,787.000000,,2013-07-18 18:01:00,
2013-07-18 14:33:00,89.0,73.0,-100.00,WSW,237,5.0,8.0,60,0.00,,,0.26,958.000000,,2013-07-18 18:33:00,
2013-07-18 14:43:00,89.0,73.0,-100.00,WSW,237,5.0,8.0,60,0.00,,,0.26,958.000000,,2013-07-18 18:43:00,
2013-07-18 14:52:00,89.0,73.0,-100.00,WSW,237,5.0,8.0,60,0.00,,,0.26,958.000000,,2013-07-18 18:52:00,
2013-07-18 15:02:00,89.0,73.0,-100.00,WSW,237,5.0,8.0,60,0.00,,,0.26,958.000000,,2013-07-18 19:02:00,
2013-07-18 15:43:00,85.0,73.0,-100.00,SSW,212,5.0,11.0,67,0.00,,,0.01,609.000000,,2013-07-18 19:43:00,
2013-07-18 15:53:00,85.0,73.0,-100.00,SSW,212,5.0,11.0,67,0.00,,,0.01,609.000000,,2013-07-18 19:53:00,
2013-07-18 16:02:00,85.0,73.0,-100.00,SSW,212,5.0,11.0,67,0.00,,,0.01,609.000000,,2013-07-18 20:02:00,
2013-07-18 18:32:00,72.0,68.0,-100.00,South,179,7.0,13.0,86,-99.99,,,0.42,93.000000,,2013-07-18 22:32:00,
2013-07-18 18:43:00,72.0,68.0,-100.00,South,179,7.0,13.0,86,-99.99,,,0.42,93.000000,,2013-07-18 22:43:00,
2013-07-18 18:53:00,72.0,68.0,-100.00,South,179,7.0,13.0,86,-99.99,,,0.42,93.000000,,2013-07-18 22:53:00,
2013-07-18 19:02:00,72.0,68.0,-100.00,South,179,7.0,13.0,86,-99.99,,,0.42,93.000000,,2013-07-18 23:02:00,
2013-07-18 19:42:00,77.0,68.0,-100.00,South,184,2.0,3.0,74,0.00,,,0.42,218.000000,,2013-07-18 23:42:00,
2013-07-18 19:52:00,77.0,68.0,-100.00,South,184,2.0,3.0,74,0.00,,,0.42,218.000000,,2013-07-18 23:52:00,
2013-07-18 20:01:00,77.0,68.0,-100.00,South,184,2.0,3.0,74,0.00,,,0.42,218.000000,,2013-07-19 00:01:00,
2013-07-18 20:32:00,76.0,70.0,-100.00,SSW,203,0.0,0.0,83,0.00,,,0.42,168.000000,,2013-07-19 00:32:00,
2013-07-18 20:43:00,76.0,70.0,-100.00,SSW,203,0.0,0.0,83,0.00,,,0.42,168.000000,,2013-07-19 00:43:00,
2013-07-18 20:52:00,76.0,70.0,-100.00,SSW,203,0.0,0.0,83,0.00,,,0.42,168.000000,,2013-07-19 00:52:00,
2013-07-18 21:01:00,76.0,70.0,-100.00,SSW,203,0.0,0.0,83,0.00,,,0.42,168.000000,,2013-07-19 01:01:00,
2013-07-18 21:42:00,70.0,68.0,-100.00,ESE,115,3.0,3.0,93,0.00,,,0.42,31.000000,,2013-07-19 01:42:00,
2013-07-18 21:52:00,70.0,68.0,-100.00,ESE,115,3.0,3.0,93,0.00,,,0.42,31.000000,,2013-07-19 01:52:00,
2013-07-18 22:02:00,70.0,68.0,-100.00,ESE,115,3.0,3.0,93,0.00,,,0.42,31.000000,,2013-07-19 02:02:00,
2013-07-18 22:32:00,68.0,67.0,-100.00,East,96,0.0,2.0,98,0.00,,,0.42,0.000000,,2013-07-19 02:32:00,
2013-07-18 22:43:00,68.0,67.0,-100.00,East,96,0.0,2.0,98,0.00,,,0.42,0.000000,,2013-07-19 02:43:00,
2013-07-18 22:52:00,68.0,67.0,-100.00,East,96,0.0,2.0,98,0.00,,,0.42,0.000000,,2013-07-19 02:52:00,
2013-07-18 23:01:00,68.0,67.0,-100.00,East,96,0.0,2.0,98,0.00,,,0.42,0.000000,,2013-07-19 03:01:00,
2013-07-18 23:43:00,66.0,65.0,-100.00,East,79,0.0,0.0,98,0.00,,,0.42,0.000000,,2013-07-19 03:43:00,
2013-07-18 23:52:00,66.0,65.0,-100.00,East,79,0.0,0.0,98,0.00,,,0.42,0.000000,,2013-07-19 03:52:00,